sensor_id;sensor_type;location;lat;lon;timestamp;pressure;altitude;pressure_sealevel;temperature;humidity
45941;BME280;31858;46.008;8.978;2023-03-13T00:02:31;94559.66;;;8.54;100.00
45941;BME280;31858;46.008;8.978;2023-03-13T00:12:32;94545.47;;;8.42;100.00
45941;BME280;31858;46.008;8.978;2023-03-13T00:22:35;94556.84;;;8.43;100.00
45941;BME280;31858;46.008;8.978;2023-03-13T00:32:39;94553.84;;;8.44;100.00
45941;BME280;31858;46.008;8.978;2023-03-13T00:42:42;94521.88;;;8.37;100.00
45941;BME280;31858;46.008;8.978;2023-03-13T00:52:44;94519.84;;;8.31;100.00
45941;BME280;31858;46.008;8.978;2023-03-13T01:02:47;94516.25;;;8.19;100.00
45941;BME280;31858;46.008;8.978;2023-03-13T01:12:48;94521.75;;;8.07;100.00
45941;BME280;31858;46.008;8.978;2023-03-13T01:22:51;94528.81;;;8.23;100.00
45941;BME280;31858;46.008;8.978;2023-03-13T01:32:53;94514.06;;;8.25;100.00
45941;BME280;31858;46.008;8.978;2023-03-13T01:42:57;94535.72;;;8.27;100.00
45941;BME280;31858;46.008;8.978;2023-03-13T01:52:59;94521.28;;;8.25;100.00
45941;BME280;31858;46.008;8.978;2023-03-13T02:03:05;94500.84;;;8.29;100.00
45941;BME280;31858;46.008;8.978;2023-03-13T02:13:07;94495.31;;;8.37;100.00
45941;BME280;31858;46.008;8.978;2023-03-13T02:23:18;94499.56;;;8.42;100.00
45941;BME280;31858;46.008;8.978;2023-03-13T02:33:25;94502.47;;;8.10;100.00
45941;BME280;31858;46.008;8.978;2023-03-13T02:43:29;94518.47;;;7.91;100.00
45941;BME280;31858;46.008;8.978;2023-03-13T02:53:34;94534.19;;;7.80;100.00
45941;BME280;31858;46.008;8.978;2023-03-13T03:03:35;94517.91;;;7.78;100.00
45941;BME280;31858;46.008;8.978;2023-03-13T03:13:38;94519.63;;;7.48;100.00
45941;BME280;31858;46.008;8.978;2023-03-13T03:23:40;94545.16;;;7.56;100.00
45941;BME280;31858;46.008;8.978;2023-03-13T03:33:44;94561.50;;;7.39;100.00
45941;BME280;31858;46.008;8.978;2023-03-13T03:43:46;94577.25;;;7.32;100.00
45941;BME280;31858;46.008;8.978;2023-03-13T03:53:49;94581.72;;;7.28;100.00
45941;BME280;31858;46.008;8.978;2023-03-13T04:03:51;94584.94;;;7.56;100.00
45941;BME280;31858;46.008;8.978;2023-03-13T04:13:54;94579.41;;;7.45;100.00
45941;BME280;31858;46.008;8.978;2023-03-13T04:23:55;94577.47;;;7.62;100.00
45941;BME280;31858;46.008;8.978;2023-03-13T04:33:58;94565.16;;;7.73;100.00
45941;BME280;31858;46.008;8.978;2023-03-13T04:44:00;94557.06;;;7.89;100.00
45941;BME280;31858;46.008;8.978;2023-03-13T04:54:03;94567.53;;;8.01;100.00
45941;BME280;31858;46.008;8.978;2023-03-13T05:04:05;94579.72;;;8.05;100.00
45941;BME280;31858;46.008;8.978;2023-03-13T05:14:08;94593.34;;;8.04;100.00
45941;BME280;31858;46.008;8.978;2023-03-13T05:24:10;94592.66;;;8.07;100.00
45941;BME280;31858;46.008;8.978;2023-03-13T05:34:13;94575.84;;;8.22;100.00
45941;BME280;31858;46.008;8.978;2023-03-13T05:44:15;94573.00;;;8.11;100.00
45941;BME280;31858;46.008;8.978;2023-03-13T05:54:18;94583.25;;;7.90;100.00
45941;BME280;31858;46.008;8.978;2023-03-13T06:04:20;94594.63;;;7.91;100.00
45941;BME280;31858;46.008;8.978;2023-03-13T06:14:23;94575.72;;;7.92;100.00
45941;BME280;31858;46.008;8.978;2023-03-13T06:24:24;94549.72;;;8.01;100.00
45941;BME280;31858;46.008;8.978;2023-03-13T06:34:27;94552.97;;;8.14;100.00
45941;BME280;31858;46.008;8.978;2023-03-13T06:44:29;94526.13;;;8.19;100.00
45941;BME280;31858;46.008;8.978;2023-03-13T06:54:32;94556.53;;;8.25;100.00
45941;BME280;31858;46.008;8.978;2023-03-13T07:04:35;94560.53;;;8.35;100.00
45941;BME280;31858;46.008;8.978;2023-03-13T07:14:38;94572.72;;;8.39;100.00
45941;BME280;31858;46.008;8.978;2023-03-13T07:24:39;94584.88;;;8.40;100.00
45941;BME280;31858;46.008;8.978;2023-03-13T07:34:42;94599.81;;;8.48;100.00
45941;BME280;31858;46.008;8.978;2023-03-13T07:44:44;94600.63;;;8.53;100.00
45941;BME280;31858;46.008;8.978;2023-03-13T07:54:47;94601.91;;;8.62;100.00
45941;BME280;31858;46.008;8.978;2023-03-13T08:04:50;94597.88;;;8.72;100.00
45941;BME280;31858;46.008;8.978;2023-03-13T08:14:53;94576.38;;;8.80;100.00
45941;BME280;31858;46.008;8.978;2023-03-13T08:24:56;94551.75;;;8.83;100.00
45941;BME280;31858;46.008;8.978;2023-03-13T08:34:59;94588.28;;;8.90;100.00
45941;BME280;31858;46.008;8.978;2023-03-13T08:45:00;94600.84;;;8.93;100.00
45941;BME280;31858;46.008;8.978;2023-03-13T08:55:04;94595.53;;;8.93;100.00
45941;BME280;31858;46.008;8.978;2023-03-13T09:05:06;94601.78;;;8.78;100.00
45941;BME280;31858;46.008;8.978;2023-03-13T09:15:10;94587.41;;;8.82;100.00
45941;BME280;31858;46.008;8.978;2023-03-13T09:25:12;94611.91;;;8.95;100.00
45941;BME280;31858;46.008;8.978;2023-03-13T09:35:15;94602.59;;;9.12;100.00
45941;BME280;31858;46.008;8.978;2023-03-13T09:45:21;94574.72;;;9.29;100.00
45941;BME280;31858;46.008;8.978;2023-03-13T09:55:29;94578.22;;;9.36;100.00
45941;BME280;31858;46.008;8.978;2023-03-13T10:05:32;94583.34;;;9.52;100.00
45941;BME280;31858;46.008;8.978;2023-03-13T10:15:39;94585.91;;;9.75;100.00
45941;BME280;31858;46.008;8.978;2023-03-13T10:25:43;94571.28;;;9.95;100.00
45941;BME280;31858;46.008;8.978;2023-03-13T10:35:58;94561.06;;;10.01;100.00
45941;BME280;31858;46.008;8.978;2023-03-13T10:46:00;94548.16;;;10.03;100.00
45941;BME280;31858;46.008;8.978;2023-03-13T10:56:09;94530.34;;;10.10;100.00
45941;BME280;31858;46.008;8.978;2023-03-13T11:06:25;94529.22;;;10.63;100.00
45941;BME280;31858;46.008;8.978;2023-03-13T11:16:29;94523.25;;;10.80;100.00
45941;BME280;31858;46.008;8.978;2023-03-13T11:26:34;94514.56;;;10.97;100.00
45941;BME280;31858;46.008;8.978;2023-03-13T11:36:42;94512.41;;;11.24;100.00
45941;BME280;31858;46.008;8.978;2023-03-13T11:46:55;94478.81;;;11.05;100.00
45941;BME280;31858;46.008;8.978;2023-03-13T11:57:09;94471.16;;;11.00;100.00
45941;BME280;31858;46.008;8.978;2023-03-13T12:07:19;94459.75;;;11.00;100.00
45941;BME280;31858;46.008;8.978;2023-03-13T12:17:31;94463.16;;;10.97;100.00
45941;BME280;31858;46.008;8.978;2023-03-13T12:27:35;94432.97;;;10.71;100.00
45941;BME280;31858;46.008;8.978;2023-03-13T12:37:45;94421.13;;;10.65;100.00
45941;BME280;31858;46.008;8.978;2023-03-13T12:48:14;94421.84;;;10.59;100.00
45941;BME280;31858;46.008;8.978;2023-03-13T12:58:25;94407.88;;;10.83;100.00
45941;BME280;31858;46.008;8.978;2023-03-13T13:08:33;94404.06;;;10.77;100.00
45941;BME280;31858;46.008;8.978;2023-03-13T13:18:37;94383.09;;;10.72;100.00
45941;BME280;31858;46.008;8.978;2023-03-13T13:28:39;94362.56;;;10.79;100.00
45941;BME280;31858;46.008;8.978;2023-03-13T13:38:44;94353.13;;;11.10;100.00
45941;BME280;31858;46.008;8.978;2023-03-13T13:48:46;94342.84;;;12.01;100.00
45941;BME280;31858;46.008;8.978;2023-03-13T13:58:49;94323.78;;;11.99;100.00
45941;BME280;31858;46.008;8.978;2023-03-13T14:08:54;94318.84;;;11.69;100.00
45941;BME280;31858;46.008;8.978;2023-03-13T14:18:57;94316.59;;;11.43;100.00
45941;BME280;31858;46.008;8.978;2023-03-13T14:29:00;94320.00;;;11.19;100.00
45941;BME280;31858;46.008;8.978;2023-03-13T14:39:04;94314.28;;;11.09;100.00
45941;BME280;31858;46.008;8.978;2023-03-13T14:49:14;94297.50;;;11.02;100.00
45941;BME280;31858;46.008;8.978;2023-03-13T14:59:22;94286.44;;;11.00;100.00
45941;BME280;31858;46.008;8.978;2023-03-13T15:09:25;94281.13;;;10.96;100.00
45941;BME280;31858;46.008;8.978;2023-03-13T15:19:29;94264.72;;;10.87;100.00
45941;BME280;31858;46.008;8.978;2023-03-13T15:29:30;94254.44;;;10.82;100.00
45941;BME280;31858;46.008;8.978;2023-03-13T15:39:33;94236.16;;;10.77;100.00
45941;BME280;31858;46.008;8.978;2023-03-13T15:49:36;94225.13;;;10.78;100.00
45941;BME280;31858;46.008;8.978;2023-03-13T15:59:38;94208.38;;;10.78;100.00
45941;BME280;31858;46.008;8.978;2023-03-13T16:09:41;94206.47;;;10.82;100.00
45941;BME280;31858;46.008;8.978;2023-03-13T16:19:45;94214.84;;;10.84;100.00
45941;BME280;31858;46.008;8.978;2023-03-13T16:29:47;94186.28;;;10.81;100.00
45941;BME280;31858;46.008;8.978;2023-03-13T16:39:50;94180.94;;;10.67;100.00
45941;BME280;31858;46.008;8.978;2023-03-13T16:49:51;94168.75;;;10.48;100.00
45941;BME280;31858;46.008;8.978;2023-03-13T16:59:54;94183.97;;;10.37;100.00
45941;BME280;31858;46.008;8.978;2023-03-13T17:09:56;94182.44;;;10.25;100.00
45941;BME280;31858;46.008;8.978;2023-03-13T17:19:59;94172.50;;;10.15;100.00
45941;BME280;31858;46.008;8.978;2023-03-13T17:30:01;94182.41;;;10.22;100.00
45941;BME280;31858;46.008;8.978;2023-03-13T17:40:14;94158.84;;;10.24;100.00
45941;BME280;31858;46.008;8.978;2023-03-13T17:50:18;94143.56;;;10.03;100.00
45941;BME280;31858;46.008;8.978;2023-03-13T18:00:23;94144.66;;;9.95;100.00
45941;BME280;31858;46.008;8.978;2023-03-13T18:10:27;94142.38;;;9.90;100.00
45941;BME280;31858;46.008;8.978;2023-03-13T18:20:31;94151.16;;;9.97;100.00
45941;BME280;31858;46.008;8.978;2023-03-13T18:30:33;94107.44;;;10.09;100.00
45941;BME280;31858;46.008;8.978;2023-03-13T18:40:36;94120.25;;;9.71;100.00
45941;BME280;31858;46.008;8.978;2023-03-13T18:50:38;94131.00;;;10.00;100.00
45941;BME280;31858;46.008;8.978;2023-03-13T19:00:40;94124.38;;;9.51;100.00
45941;BME280;31858;46.008;8.978;2023-03-13T19:10:42;94099.19;;;9.27;100.00
45941;BME280;31858;46.008;8.978;2023-03-13T19:20:45;94102.53;;;9.06;100.00
45941;BME280;31858;46.008;8.978;2023-03-13T19:30:46;94091.16;;;9.09;100.00
45941;BME280;31858;46.008;8.978;2023-03-13T19:40:50;94088.41;;;8.95;100.00
45941;BME280;31858;46.008;8.978;2023-03-13T19:50:51;94098.22;;;8.88;100.00
45941;BME280;31858;46.008;8.978;2023-03-13T20:00:54;94133.09;;;8.79;100.00
45941;BME280;31858;46.008;8.978;2023-03-13T20:10:56;94133.09;;;8.79;100.00
45941;BME280;31858;46.008;8.978;2023-03-13T20:20:59;94115.97;;;8.73;100.00
45941;BME280;31858;46.008;8.978;2023-03-13T20:31:01;94094.31;;;8.67;100.00
45941;BME280;31858;46.008;8.978;2023-03-13T20:41:04;94092.34;;;8.61;100.00
45941;BME280;31858;46.008;8.978;2023-03-13T20:51:07;94066.97;;;8.67;100.00
45941;BME280;31858;46.008;8.978;2023-03-13T21:01:10;94026.38;;;8.66;100.00
45941;BME280;31858;46.008;8.978;2023-03-13T21:11:12;94028.66;;;8.68;100.00
45941;BME280;31858;46.008;8.978;2023-03-13T21:21:16;94011.22;;;8.67;100.00
45941;BME280;31858;46.008;8.978;2023-03-13T21:31:19;93992.97;;;8.62;100.00
45941;BME280;31858;46.008;8.978;2023-03-13T21:41:21;93964.53;;;8.62;100.00
45941;BME280;31858;46.008;8.978;2023-03-13T21:51:23;93941.38;;;8.63;100.00
45941;BME280;31858;46.008;8.978;2023-03-13T22:01:26;93895.47;;;8.59;100.00
45941;BME280;31858;46.008;8.978;2023-03-13T22:11:28;93872.31;;;8.56;100.00
45941;BME280;31858;46.008;8.978;2023-03-13T22:21:31;93856.72;;;8.43;100.00
45941;BME280;31858;46.008;8.978;2023-03-13T22:31:33;93818.69;;;8.25;100.00
45941;BME280;31858;46.008;8.978;2023-03-13T22:41:37;93827.19;;;7.79;100.00
45941;BME280;31858;46.008;8.978;2023-03-13T22:51:38;93828.19;;;7.57;100.00
45941;BME280;31858;46.008;8.978;2023-03-13T23:01:44;93819.19;;;7.69;100.00
45941;BME280;31858;46.008;8.978;2023-03-13T23:11:45;93799.41;;;7.59;100.00
45941;BME280;31858;46.008;8.978;2023-03-13T23:21:48;93749.81;;;7.60;100.00
45941;BME280;31858;46.008;8.978;2023-03-13T23:31:50;93726.72;;;7.60;100.00
45941;BME280;31858;46.008;8.978;2023-03-13T23:41:53;93691.47;;;7.56;100.00
45941;BME280;31858;46.008;8.978;2023-03-13T23:51:55;93696.00;;;7.56;100.00
